Time;durP1;ratioP1;P1;durP2;ratioP2;P2;SDS_P1;SDS_P2;PMS_P1;PMS_P2;Temp;Humidity;BMP_temperature;BMP_pressure;BME280_temperature;BME280_humidity;BME280_pressure;Samples;Min_cycle;Max_cycle;Signal;HPM_P1;HPM_P2
2022/01/08 00:00:15;;;;;;;;;;;;;;;8.46;31.54;99387.38;4480893;32;33410;-87
2022/01/08 00:02:42;;;;;;;;;;;;;;;8.36;31.58;99385.38;4481540;32;35215;-89
2022/01/08 00:05:10;;;;;;;;;;;;;;;8.49;31.26;99388.34;4482207;32;34248;-86
2022/01/08 00:07:37;;;;;;;;;;;;;;;8.68;30.90;99376.72;4481731;32;35121;-89
2022/01/08 00:10:05;;;;;;;;;;;;;;;8.76;30.65;99374.31;4481420;32;33904;-86
2022/01/08 00:12:32;;;;;;;;;;;;;;;8.75;30.89;99370.88;4480389;32;34117;-88
2022/01/08 00:14:59;;;;;;;;;;;;;;;8.43;31.03;99367.50;4481711;32;34380;-88
2022/01/08 00:17:26;;;;;;;;;;;;;;;8.46;31.56;99369.28;4481417;32;34238;-88
2022/01/08 00:19:53;;;;;;;;;;;;;;;8.59;31.69;99375.63;4481888;32;33494;-86
2022/01/08 00:22:21;;;;;;;;;;;;;;;8.58;31.52;99379.91;4481754;32;34169;-88
2022/01/08 00:24:52;;;;;;;;;;;;;;;8.90;30.22;99372.94;4481961;32;34303;-87
2022/01/08 00:27:19;;;;;;;;;;;;;;;8.47;31.23;99378.78;4481466;32;33895;-88
2022/01/08 00:29:47;;;;;;;;;;;;;;;8.54;31.59;99375.53;4481646;32;33411;-86
2022/01/08 00:32:14;;;;;;;;;;;;;;;8.59;31.61;99371.31;4481278;32;33950;-88
2022/01/08 00:34:42;;;;;;;;;;;;;;;8.52;31.61;99361.69;4481664;32;34552;-88
2022/01/08 00:37:10;;;;;;;;;;;;;;;8.52;31.56;99365.16;4479681;32;34721;-88
2022/01/08 00:39:37;;;;;;;;;;;;;;;8.53;31.32;99361.72;4482825;31;33556;-88
2022/01/08 00:42:04;;;;;;;;;;;;;;;8.81;31.72;99348.56;4483978;32;33927;-88
2022/01/08 00:44:31;;;;;;;;;;;;;;;8.83;31.61;99347.78;4483525;32;34492;-88
2022/01/08 00:46:59;;;;;;;;;;;;;;;8.99;31.33;99347.28;4483175;31;34177;-85
2022/01/08 00:49:27;;;;;;;;;;;;;;;8.76;31.32;99336.41;4483683;32;33763;-87
2022/01/08 00:51:54;;;;;;;;;;;;;;;8.69;30.97;99337.13;4483231;32;34117;-88
2022/01/08 00:54:22;;;;;;;;;;;;;;;8.70;31.06;99333.69;4483476;32;34621;-88
2022/01/08 00:56:50;;;;;;;;;;;;;;;8.77;31.09;99330.41;4483911;32;34802;-88
2022/01/08 00:59:17;;;;;;;;;;;;;;;8.60;31.24;99329.16;4483524;32;32987;-88
2022/01/08 01:01:45;;;;;;;;;;;;;;;8.57;31.23;99331.66;4483244;32;34251;-87
2022/01/08 01:04:12;;;;;;;;;;;;;;;8.38;31.38;99332.06;4483893;32;34349;-87
2022/01/08 01:06:39;;;;;;;;;;;;;;;8.39;31.05;99326.94;4483505;32;33945;-87
2022/01/08 01:09:06;;;;;;;;;;;;;;;8.05;31.19;99330.34;4483631;32;33496;-86
2022/01/08 01:11:34;;;;;;;;;;;;;;;8.20;31.19;99312.66;4481700;32;34170;-87
2022/01/08 01:14:01;;;;;;;;;;;;;;;8.21;31.50;99309.22;4483942;31;34389;-86
2022/01/08 01:16:28;;;;;;;;;;;;;;;7.90;32.05;99301.56;4483373;32;34173;-87
2022/01/08 01:18:57;;;;;;;;;;;;;;;7.85;32.18;99300.59;4482328;32;33191;-86
2022/01/08 01:21:24;;;;;;;;;;;;;;;8.07;32.11;99301.97;4481261;32;34817;-87
2022/01/08 01:23:52;;;;;;;;;;;;;;;8.00;31.84;99300.97;4483974;32;34024;-87
2022/01/08 01:26:24;;;;;;;;;;;;;;;8.04;31.77;99301.09;4483247;32;34329;-86
2022/01/08 01:47:32;;;;;;;;;;;;;;;8.17;32.07;99279.00;4481103;32;34217;-86
2022/01/08 01:49:59;;;;;;;;;;;;;;;8.12;31.67;99272.88;4480702;32;33086;-87
2022/01/08 01:52:28;;;;;;;;;;;;;;;7.97;31.80;99273.38;4474173;32;34508;-87
2022/01/08 01:54:55;;;;;;;;;;;;;;;7.79;32.02;99268.59;4481973;32;34113;-88
2022/01/08 01:57:22;;;;;;;;;;;;;;;7.86;31.57;99268.78;4483112;32;34784;-88
2022/01/08 01:59:49;;;;;;;;;;;;;;;7.67;31.94;99267.44;4482934;31;33475;-87
2022/01/08 02:02:17;;;;;;;;;;;;;;;7.57;31.84;99266.31;4482784;32;34326;-88
2022/01/08 02:04:44;;;;;;;;;;;;;;;7.55;31.58;99265.41;4480281;32;34335;-88
2022/01/08 02:07:11;;;;;;;;;;;;;;;7.53;31.62;99267.06;4483315;32;34003;-87
2022/01/08 02:09:39;;;;;;;;;;;;;;;7.09;32.20;99261.59;4483208;32;33263;-88
2022/01/08 02:12:08;;;;;;;;;;;;;;;7.35;31.79;99256.25;4483241;32;35144;-86
2022/01/08 02:14:36;;;;;;;;;;;;;;;7.36;32.03;99258.03;4481927;32;34351;-87
2022/01/08 02:17:05;;;;;;;;;;;;;;;7.14;32.19;99254.84;4482106;32;34001;-87
2022/01/08 02:19:33;;;;;;;;;;;;;;;7.28;31.95;99256.09;4480562;32;33550;-85
2022/01/08 02:22:01;;;;;;;;;;;;;;;7.45;32.05;99251.38;4480857;32;34064;-84
2022/01/08 02:24:28;;;;;;;;;;;;;;;7.51;31.86;99250.69;4483296;32;34824;-83
2022/01/08 02:26:55;;;;;;;;;;;;;;;7.42;31.78;99253.00;4481836;32;34865;-85
2022/01/08 02:29:23;;;;;;;;;;;;;;;7.43;31.56;99252.19;4482322;32;33267;-86
2022/01/08 02:32:08;;;;;;;;;;;;;;;7.57;31.18;99250.81;4481848;32;34189;-85
2022/01/08 02:34:36;;;;;;;;;;;;;;;7.55;31.73;99247.34;4481292;32;34123;-85
2022/01/08 02:37:05;;;;;;;;;;;;;;;7.38;31.61;99235.72;4481752;32;34230;-85
2022/01/08 02:39:38;;;;;;;;;;;;;;;7.45;31.23;99241.06;4482597;31;34309;-84
2022/01/08 02:42:06;;;;;;;;;;;;;;;7.08;31.64;99239.19;4481627;32;34460;-84
2022/01/08 02:44:34;;;;;;;;;;;;;;;7.34;31.51;99239.03;4480382;32;35195;-86
2022/01/08 02:47:01;;;;;;;;;;;;;;;6.98;31.97;99237.22;4482445;32;32746;-85
2022/01/08 02:49:31;;;;;;;;;;;;;;;6.83;31.89;99242.81;4481165;32;33077;-85
2022/01/08 02:51:58;;;;;;;;;;;;;;;6.67;32.30;99246.63;4479082;32;32602;-85
2022/01/08 02:54:25;;;;;;;;;;;;;;;6.61;32.43;99241.28;4482173;32;34098;-86
2022/01/08 02:56:53;;;;;;;;;;;;;;;6.64;32.31;99233.66;4482594;32;33614;-86
2022/01/08 02:59:20;;;;;;;;;;;;;;;6.56;32.57;99227.41;4482297;32;33046;-87
2022/01/08 03:01:47;;;;;;;;;;;;;;;6.58;32.44;99226.63;4480736;31;32704;-86
2022/01/08 03:04:15;;;;;;;;;;;;;;;6.71;32.37;99227.88;4482830;32;34435;-86
2022/01/08 03:06:42;;;;;;;;;;;;;;;6.58;32.47;99230.91;4482095;32;34427;-85
2022/01/08 03:09:09;;;;;;;;;;;;;;;6.27;33.06;99235.12;4482861;32;33742;-86
2022/01/08 03:11:38;;;;;;;;;;;;;;;6.80;32.42;99233.28;4482755;32;34158;-86
2022/01/08 03:14:05;;;;;;;;;;;;;;;6.73;32.74;99225.31;4482015;32;34492;-86
2022/01/08 03:16:33;;;;;;;;;;;;;;;6.71;32.57;99222.72;4480900;32;34518;-86
2022/01/08 03:19:09;;;;;;;;;;;;;;;6.77;32.18;99229.72;4482235;32;33130;-85
2022/01/08 03:21:41;;;;;;;;;;;;;;;6.78;32.52;99232.38;4481190;32;34978;-85
2022/01/08 03:24:10;;;;;;;;;;;;;;;6.45;32.95;99233.94;4482467;32;34412;-86
2022/01/08 03:26:37;;;;;;;;;;;;;;;6.80;32.54;99235.84;4482285;32;33843;-86
2022/01/08 03:29:04;;;;;;;;;;;;;;;6.60;32.58;99236.97;4482487;32;32889;-87
2022/01/08 03:31:32;;;;;;;;;;;;;;;6.53;32.50;99224.75;4482158;32;35120;-85
2022/01/08 03:34:00;;;;;;;;;;;;;;;7.10;31.64;99232.38;4481746;32;34299;-85
2022/01/08 03:36:27;;;;;;;;;;;;;;;6.75;32.15;99232.28;4481351;32;35090;-84
2022/01/08 03:38:54;;;;;;;;;;;;;;;6.53;32.68;99245.34;4482546;32;33313;-86
2022/01/08 03:41:22;;;;;;;;;;;;;;;6.66;32.41;99244.00;4482061;31;35079;-86
2022/01/08 03:43:49;;;;;;;;;;;;;;;6.96;31.81;99244.88;4481466;32;34222;-85
2022/01/08 03:46:19;;;;;;;;;;;;;;;6.89;31.49;99234.34;4481141;32;34331;-86
2022/01/08 03:49:10;;;;;;;;;;;;;;;6.69;31.80;99251.81;4480323;32;33783;-85
2022/01/08 03:51:35;;;;;;;;;;;;;;;6.56;32.17;99246.31;4480429;32;34187;-85
2022/01/08 03:54:02;;;;;;;;;;;;;;;6.57;31.97;99248.06;4481518;32;34428;-86
2022/01/08 03:56:29;;;;;;;;;;;;;;;6.92;31.49;99243.06;4481164;32;35059;-86
2022/01/08 03:58:56;;;;;;;;;;;;;;;6.83;31.61;99241.09;4481891;31;33701;-86
2022/01/08 04:01:24;;;;;;;;;;;;;;;6.94;31.28;99246.56;4481315;32;35007;-86
2022/01/08 04:03:51;;;;;;;;;;;;;;;6.81;31.42;99234.13;4481457;32;34143;-86
2022/01/08 04:06:18;;;;;;;;;;;;;;;6.72;31.80;99237.34;4482063;32;34228;-85
2022/01/08 04:08:45;;;;;;;;;;;;;;;6.89;31.45;99227.50;4476176;32;33263;-86
2022/01/08 04:11:13;;;;;;;;;;;;;;;6.75;31.59;99231.41;4480535;32;33760;-86
2022/01/08 04:13:41;;;;;;;;;;;;;;;6.47;32.07;99224.56;4481681;32;34163;-86
2022/01/08 04:16:16;;;;;;;;;;;;;;;6.65;32.01;99217.38;4484027;32;34107;-86
2022/01/08 04:18:43;;;;;;;;;;;;;;;7.09;31.14;99230.66;4483528;32;33827;-87
2022/01/08 04:23:44;;;;;;;;;;;;;;;6.73;31.67;99215.87;4482687;32;33974;-87
2022/01/08 04:26:11;;;;;;;;;;;;;;;6.48;31.93;99203.16;4484049;32;34585;-88
2022/01/08 04:28:38;;;;;;;;;;;;;;;6.44;32.00;99209.91;4483434;32;34005;-86
2022/01/08 04:31:05;;;;;;;;;;;;;;;6.18;32.34;99215.97;4474725;32;33814;-86
2022/01/08 04:33:32;;;;;;;;;;;;;;;6.51;31.91;99201.50;4482870;32;33998;-86
2022/01/08 04:36:00;;;;;;;;;;;;;;;6.57;31.68;99195.69;4480363;32;34321;-87
2022/01/08 04:38:28;;;;;;;;;;;;;;;6.48;31.61;99198.00;4484143;32;33269;-87
2022/01/08 04:40:55;;;;;;;;;;;;;;;6.19;32.29;99186.81;4483426;31;34223;-88
2022/01/08 04:43:23;;;;;;;;;;;;;;;6.01;32.64;99189.69;4483660;31;35195;-88
2022/01/08 04:45:52;;;;;;;;;;;;;;;6.46;32.46;99179.91;4483220;32;35180;-88
2022/01/08 04:48:19;;;;;;;;;;;;;;;6.30;32.27;99178.59;4483999;32;33692;-88
2022/01/08 04:50:49;;;;;;;;;;;;;;;6.33;32.21;99177.81;4481721;32;33913;-87
2022/01/08 04:53:17;;;;;;;;;;;;;;;6.37;31.95;99179.66;4481471;32;35283;-86
2022/01/08 04:55:44;;;;;;;;;;;;;;;6.40;31.93;99187.44;4482999;32;34994;-87
2022/01/08 04:58:11;;;;;;;;;;;;;;;6.21;32.12;99180.91;4478602;32;34257;-85
2022/01/08 05:00:39;;;;;;;;;;;;;;;6.15;32.49;99172.97;4477482;32;34185;-86
2022/01/08 05:03:06;;;;;;;;;;;;;;;6.17;32.35;99178.16;4482604;32;34126;-86
2022/01/08 05:05:34;;;;;;;;;;;;;;;6.30;32.16;99168.28;4484048;32;33924;-87
2022/01/08 05:08:01;;;;;;;;;;;;;;;6.45;32.08;99167.00;4483718;32;33131;-87
2022/01/08 05:10:33;;;;;;;;;;;;;;;6.34;32.44;99159.81;4483551;32;33782;-87
2022/01/08 05:13:04;;;;;;;;;;;;;;;6.48;32.22;99162.81;4483200;32;34410;-86
2022/01/08 05:15:31;;;;;;;;;;;;;;;6.48;32.20;99167.97;4483509;32;33943;-87
2022/01/08 05:17:59;;;;;;;;;;;;;;;6.27;32.80;99173.34;4482406;32;33300;-86
2022/01/08 05:20:31;;;;;;;;;;;;;;;6.30;32.77;99173.44;4482347;32;34316;-86
2022/01/08 05:23:01;;;;;;;;;;;;;;;6.22;33.13;99168.88;4482243;32;35370;-86
2022/01/08 05:25:28;;;;;;;;;;;;;;;6.38;32.64;99175.38;4482216;32;34972;-87
2022/01/08 05:27:55;;;;;;;;;;;;;;;6.30;32.80;99185.44;4483410;32;33337;-87
2022/01/08 05:30:23;;;;;;;;;;;;;;;6.40;32.96;99184.00;4482290;32;33973;-87
2022/01/08 05:32:51;;;;;;;;;;;;;;;6.52;32.74;99184.38;4482301;32;34413;-86
2022/01/08 05:35:18;;;;;;;;;;;;;;;6.82;32.24;99181.78;4483369;32;35281;-86
2022/01/08 05:37:46;;;;;;;;;;;;;;;6.74;32.41;99184.16;4483939;32;33297;-87
2022/01/08 05:40:13;;;;;;;;;;;;;;;6.90;32.07;99177.72;4483459;32;33493;-87
2022/01/08 05:42:41;;;;;;;;;;;;;;;6.98;31.83;99176.22;4480584;32;34487;-86
2022/01/08 05:45:09;;;;;;;;;;;;;;;6.66;32.65;99171.88;4483837;32;35112;-88
2022/01/08 05:47:36;;;;;;;;;;;;;;;6.47;33.01;99166.19;4483528;32;34312;-86
2022/01/08 05:50:04;;;;;;;;;;;;;;;6.33;32.88;99173.53;4482946;32;35189;-87
2022/01/08 05:52:31;;;;;;;;;;;;;;;6.42;32.78;99172.03;4482653;32;34858;-87
2022/01/08 05:54:58;;;;;;;;;;;;;;;6.51;32.57;99177.44;4483298;32;33836;-87
2022/01/08 05:57:26;;;;;;;;;;;;;;;6.52;32.72;99180.09;4481731;32;34714;-86
2022/01/08 05:59:53;;;;;;;;;;;;;;;6.77;32.51;99186.78;4483036;32;33831;-87
2022/01/08 06:02:20;;;;;;;;;;;;;;;6.86;32.45;99193.94;4482478;32;34577;-87
2022/01/08 06:04:48;;;;;;;;;;;;;;;6.97;32.14;99194.19;4482488;32;33897;-87
2022/01/08 06:07:15;;;;;;;;;;;;;;;6.95;32.25;99191.59;4483080;32;33003;-87
2022/01/08 06:09:42;;;;;;;;;;;;;;;6.87;32.32;99202.53;4483078;32;34108;-87
2022/01/08 06:12:09;;;;;;;;;;;;;;;6.72;32.30;99206.41;4475455;32;34241;-87
2022/01/08 06:14:37;;;;;;;;;;;;;;;6.57;32.60;99211.13;4481973;32;34522;-88
2022/01/08 06:17:04;;;;;;;;;;;;;;;6.65;32.70;99204.50;4483483;32;33441;-87
2022/01/08 06:19:32;;;;;;;;;;;;;;;6.83;32.10;99227.34;4482239;32;34190;-88
2022/01/08 06:22:00;;;;;;;;;;;;;;;6.52;32.46;99223.87;4482244;32;34443;-87
2022/01/08 06:24:27;;;;;;;;;;;;;;;6.89;32.19;99219.75;4481912;32;35079;-87
2022/01/08 06:26:55;;;;;;;;;;;;;;;6.90;31.91;99215.50;4482814;32;33764;-87
2022/01/08 06:29:22;;;;;;;;;;;;;;;6.66;32.08;99213.09;4481663;32;35365;-87
2022/01/08 06:31:49;;;;;;;;;;;;;;;6.89;31.43;99217.19;4481379;32;34727;-87
2022/01/08 06:34:17;;;;;;;;;;;;;;;6.73;31.53;99215.00;4482555;32;35071;-86
2022/01/08 06:36:44;;;;;;;;;;;;;;;6.52;31.47;99215.28;4482499;32;34275;-87
2022/01/08 06:39:11;;;;;;;;;;;;;;;6.61;31.56;99209.50;4482485;32;34898;-88
2022/01/08 06:41:38;;;;;;;;;;;;;;;6.74;31.54;99209.94;4482308;32;34435;-87
2022/01/08 06:44:06;;;;;;;;;;;;;;;6.32;31.72;99210.38;4482694;32;34410;-87
2022/01/08 06:46:33;;;;;;;;;;;;;;;6.10;32.14;99215.72;4482477;32;34214;-87
2022/01/08 06:49:00;;;;;;;;;;;;;;;6.36;31.60;99213.06;4481828;32;34167;-86
2022/01/08 06:51:27;;;;;;;;;;;;;;;6.58;31.15;99206.00;4481979;32;35237;-88
2022/01/08 06:53:54;;;;;;;;;;;;;;;6.46;31.19;99203.06;4482603;32;34824;-87
2022/01/08 06:56:22;;;;;;;;;;;;;;;6.10;31.89;99208.00;4481562;32;33424;-87
2022/01/08 06:58:49;;;;;;;;;;;;;;;6.09;31.95;99204.53;4482380;32;34306;-90
2022/01/08 07:01:16;;;;;;;;;;;;;;;5.85;32.28;99211.47;4482083;32;34109;-89
2022/01/08 07:03:44;;;;;;;;;;;;;;;6.01;32.25;99207.69;4482112;32;34977;-89
2022/01/08 07:06:11;;;;;;;;;;;;;;;5.88;33.05;99210.69;4482634;32;34217;-88
2022/01/08 07:08:40;;;;;;;;;;;;;;;5.99;32.69;99205.09;4481874;32;33875;-87
2022/01/08 07:11:07;;;;;;;;;;;;;;;6.10;32.44;99205.44;4482707;32;33833;-88
2022/01/08 07:13:34;;;;;;;;;;;;;;;6.00;32.60;99188.81;4482629;32;33917;-87
2022/01/08 07:16:01;;;;;;;;;;;;;;;6.15;32.35;99188.41;4478005;32;33147;-86
2022/01/08 07:18:29;;;;;;;;;;;;;;;6.45;31.81;99187.59;4480912;32;33869;-88
2022/01/08 07:20:56;;;;;;;;;;;;;;;6.26;31.96;99181.91;4478537;32;34482;-88
2022/01/08 07:23:23;;;;;;;;;;;;;;;6.29;31.96;99184.56;4482068;32;33976;-89
2022/01/08 07:25:50;;;;;;;;;;;;;;;6.38;31.88;99183.97;4482120;32;34243;-85
2022/01/08 07:28:18;;;;;;;;;;;;;;;6.21;32.12;99183.47;4476044;32;33829;-89
2022/01/08 07:30:45;;;;;;;;;;;;;;;5.78;33.08;99182.06;4482663;32;34068;-88
2022/01/08 07:33:13;;;;;;;;;;;;;;;5.53;33.72;99175.28;4481807;32;34228;-87
2022/01/08 07:35:41;;;;;;;;;;;;;;;5.16;34.17;99182.59;4482244;32;34253;-89
2022/01/08 07:38:08;;;;;;;;;;;;;;;5.81;33.71;99186.47;4481981;32;34113;-87
2022/01/08 07:40:35;;;;;;;;;;;;;;;6.14;32.82;99180.63;4482605;31;34190;-89
2022/01/08 07:43:03;;;;;;;;;;;;;;;5.93;33.43;99181.72;4473191;32;35420;-88
2022/01/08 07:45:30;;;;;;;;;;;;;;;6.05;33.39;99196.66;4481537;32;33278;-87
2022/01/08 07:47:57;;;;;;;;;;;;;;;5.99;33.36;99197.38;4482588;32;33780;-87
2022/01/08 07:50:25;;;;;;;;;;;;;;;6.34;32.74;99179.53;4482583;32;35283;-86
2022/01/08 07:52:52;;;;;;;;;;;;;;;6.20;33.23;99173.09;4483751;32;33761;-85
2022/01/08 07:55:19;;;;;;;;;;;;;;;6.17;33.64;99171.31;4482911;32;33743;-88
2022/01/08 07:57:47;;;;;;;;;;;;;;;6.15;34.15;99167.81;4484722;32;34841;-87
2022/01/08 08:00:15;;;;;;;;;;;;;;;6.27;33.80;99154.44;4484379;32;35374;-86
2022/01/08 08:02:42;;;;;;;;;;;;;;;6.31;33.90;99159.72;4484358;32;35180;-87
2022/01/08 08:05:09;;;;;;;;;;;;;;;6.48;33.84;99161.94;4483989;32;34432;-88
2022/01/08 08:07:37;;;;;;;;;;;;;;;6.46;33.83;99158.44;4484479;32;34710;-87
2022/01/08 08:10:10;;;;;;;;;;;;;;;6.38;33.97;99165.06;4483727;32;34475;-87
2022/01/08 08:12:38;;;;;;;;;;;;;;;5.96;34.42;99160.38;4484420;32;33891;-88
2022/01/08 08:15:06;;;;;;;;;;;;;;;6.34;33.96;99151.22;4482958;32;33443;-88
2022/01/08 08:17:33;;;;;;;;;;;;;;;6.63;33.47;99156.31;4483583;32;34142;-88
2022/01/08 08:20:02;;;;;;;;;;;;;;;6.63;33.75;99146.91;4483103;32;34226;-88
2022/01/08 08:22:30;;;;;;;;;;;;;;;6.61;33.64;99133.09;4484134;32;34961;-87
2022/01/08 08:24:57;;;;;;;;;;;;;;;6.95;33.17;99134.91;4484158;32;34090;-87
2022/01/08 08:27:24;;;;;;;;;;;;;;;7.10;32.73;99139.59;4484141;32;33803;-88
2022/01/08 08:29:51;;;;;;;;;;;;;;;7.20;32.76;99140.72;4483021;32;34165;-87
2022/01/08 08:32:19;;;;;;;;;;;;;;;7.10;32.86;99126.69;4484155;32;34002;-88
2022/01/08 08:34:46;;;;;;;;;;;;;;;7.22;32.44;99134.75;4482865;32;34210;-86
2022/01/08 08:37:14;;;;;;;;;;;;;;;7.54;31.95;99121.78;4483831;32;34295;-88
2022/01/08 08:39:41;;;;;;;;;;;;;;;6.76;32.36;99124.94;4483228;31;35195;-86
2022/01/08 08:42:08;;;;;;;;;;;;;;;6.58;32.92;99127.88;4483807;32;34753;-88
2022/01/08 08:44:35;;;;;;;;;;;;;;;6.71;33.02;99127.38;4483417;32;33558;-87
2022/01/08 08:47:04;;;;;;;;;;;;;;;6.50;33.69;99119.94;4483868;32;35725;-88
2022/01/08 08:49:31;;;;;;;;;;;;;;;7.52;32.36;99118.28;4483232;32;35298;-87
2022/01/08 08:51:59;;;;;;;;;;;;;;;7.45;32.76;99124.13;4483502;32;34500;-88
2022/01/08 08:54:26;;;;;;;;;;;;;;;7.51;32.44;99124.28;4483785;32;34371;-88
2022/01/08 08:56:53;;;;;;;;;;;;;;;7.80;32.26;99135.28;4484258;32;33879;-88
2022/01/08 08:59:23;;;;;;;;;;;;;;;7.77;32.24;99128.34;4483068;32;34509;-88
2022/01/08 09:01:52;;;;;;;;;;;;;;;7.43;31.31;99131.84;4483383;32;34114;-88
2022/01/08 09:04:19;;;;;;;;;;;;;;;7.77;31.70;99127.50;4483961;32;33218;-88
2022/01/08 09:06:46;;;;;;;;;;;;;;;7.03;31.63;99127.38;4483926;32;33785;-87
2022/01/08 09:09:14;;;;;;;;;;;;;;;6.81;32.23;99115.59;4483845;32;34924;-89
2022/01/08 09:11:41;;;;;;;;;;;;;;;6.99;32.62;99128.12;4484185;32;34031;-88
2022/01/08 09:14:09;;;;;;;;;;;;;;;7.19;32.66;99126.03;4483326;32;33514;-88
2022/01/08 09:16:36;;;;;;;;;;;;;;;7.35;31.97;99120.47;4483132;32;33007;-88
2022/01/08 09:19:03;;;;;;;;;;;;;;;6.15;33.77;99118.06;4482982;32;34394;-87
2022/01/08 09:21:30;;;;;;;;;;;;;;;6.36;34.19;99120.34;4483522;32;34887;-87
2022/01/08 09:23:59;;;;;;;;;;;;;;;5.84;34.34;99123.13;4482115;32;33125;-86
2022/01/08 09:26:26;;;;;;;;;;;;;;;6.75;33.91;99116.34;4483826;32;34923;-87
2022/01/08 09:28:53;;;;;;;;;;;;;;;5.64;35.05;99107.88;4483859;32;35281;-87
2022/01/08 09:31:21;;;;;;;;;;;;;;;5.71;35.37;99107.25;4484486;32;34551;-87
2022/01/08 09:33:48;;;;;;;;;;;;;;;6.38;34.25;99109.28;4483963;32;33511;-86
2022/01/08 09:36:15;;;;;;;;;;;;;;;6.44;34.52;99103.41;4482535;32;34090;-88
2022/01/08 09:38:42;;;;;;;;;;;;;;;5.27;36.06;99099.00;4483551;32;35158;-87
2022/01/08 09:41:10;;;;;;;;;;;;;;;5.21;37.55;99104.81;4483252;31;34947;-87
2022/01/08 09:43:37;;;;;;;;;;;;;;;6.20;35.32;99094.19;4483395;32;35045;-87
2022/01/08 09:46:04;;;;;;;;;;;;;;;6.52;35.40;99091.66;4483823;32;34737;-88
2022/01/08 09:48:31;;;;;;;;;;;;;;;5.26;36.68;99092.09;4481852;32;33755;-88
2022/01/08 09:50:59;;;;;;;;;;;;;;;6.16;35.87;99087.19;4483596;32;34379;-87
2022/01/08 09:53:26;;;;;;;;;;;;;;;5.58;37.09;99085.44;4470302;32;34035;-87
2022/01/08 09:55:54;;;;;;;;;;;;;;;5.91;36.21;99089.84;4467346;32;34371;-87
2022/01/08 09:58:21;;;;;;;;;;;;;;;6.01;35.95;99095.34;4469716;32;34523;-87
2022/01/08 10:00:48;;;;;;;;;;;;;;;6.05;35.93;99098.88;4483481;32;33692;-88
2022/01/08 10:03:16;;;;;;;;;;;;;;;5.76;36.54;99092.84;4483072;32;34325;-87
2022/01/08 10:05:47;;;;;;;;;;;;;;;5.94;36.52;99088.25;4482776;32;33966;-87
2022/01/08 10:08:35;;;;;;;;;;;;;;;5.95;36.43;99082.31;4483077;32;34310;-88
2022/01/08 10:11:03;;;;;;;;;;;;;;;5.99;36.52;99072.97;4481988;32;34305;-84
2022/01/08 10:13:32;;;;;;;;;;;;;;;6.26;35.91;99073.75;4483630;32;32907;-84
2022/01/08 10:18:46;;;;;;;;;;;;;;;6.77;35.70;99069.97;4482207;32;34231;-83
2022/01/08 10:21:24;;;;;;;;;;;;;;;7.14;35.40;99065.78;4483657;32;34911;-83
2022/01/08 10:23:52;;;;;;;;;;;;;;;7.21;34.64;99055.66;4483432;32;33352;-83
2022/01/08 10:26:20;;;;;;;;;;;;;;;6.13;35.94;99063.06;4483251;32;33841;-83
2022/01/08 10:28:49;;;;;;;;;;;;;;;7.02;35.66;99050.88;4482160;32;34798;-84
2022/01/08 10:31:26;;;;;;;;;;;;;;;7.16;34.61;99052.09;4481474;32;33916;-87
2022/01/08 10:34:02;;;;;;;;;;;;;;;7.55;34.41;99057.31;4483520;32;34319;-87
2022/01/08 10:36:31;;;;;;;;;;;;;;;7.79;34.51;99054.41;4483543;32;34223;-84
2022/01/08 10:38:59;;;;;;;;;;;;;;;7.98;34.10;99059.97;4483371;32;34186;-85
2022/01/08 10:41:27;;;;;;;;;;;;;;;8.46;33.24;99052.38;4482989;32;35005;-86
2022/01/08 10:44:11;;;;;;;;;;;;;;;8.12;33.06;99045.66;4482813;32;34239;-85
2022/01/08 10:46:39;;;;;;;;;;;;;;;8.32;32.23;99051.19;4480572;32;35147;-87
2022/01/08 10:49:06;;;;;;;;;;;;;;;7.39;34.17;99051.78;4481919;32;34919;-86
2022/01/08 10:51:34;;;;;;;;;;;;;;;7.19;35.32;99057.31;4480964;32;34925;-86
2022/01/08 10:54:04;;;;;;;;;;;;;;;7.84;33.58;99058.78;4480361;32;34202;-86
2022/01/08 10:56:33;;;;;;;;;;;;;;;8.29;33.04;99062.34;4483372;32;34289;-87
2022/01/08 10:59:01;;;;;;;;;;;;;;;8.51;33.16;99060.22;4483336;32;34513;-87
2022/01/08 11:01:38;;;;;;;;;;;;;;;7.57;34.88;99058.19;4482267;32;33664;-85
2022/01/08 11:04:08;;;;;;;;;;;;;;;8.27;33.43;99061.44;4483034;32;33389;-87
2022/01/08 11:06:52;;;;;;;;;;;;;;;8.42;33.02;99050.59;4482407;32;34343;-87
2022/01/08 11:09:19;;;;;;;;;;;;;;;8.64;32.72;99051.88;4481719;32;34190;-86
2022/01/08 11:11:50;;;;;;;;;;;;;;;8.55;31.62;99045.66;4468891;32;34670;-88
2022/01/08 11:14:44;;;;;;;;;;;;;;;8.05;32.57;99046.34;4470360;32;32945;-89
2022/01/08 11:17:11;;;;;;;;;;;;;;;6.83;33.97;99049.53;4472390;31;33919;-88
2022/01/08 11:19:38;;;;;;;;;;;;;;;7.00;34.79;99045.66;4481525;32;34455;-87
2022/01/08 11:22:06;;;;;;;;;;;;;;;7.69;34.58;99049.91;4478358;32;34510;-89
2022/01/08 11:24:33;;;;;;;;;;;;;;;7.31;35.64;99043.81;4468744;32;33166;-84
2022/01/08 11:27:00;;;;;;;;;;;;;;;7.65;35.04;99037.78;4477150;32;33628;-87
2022/01/08 11:29:27;;;;;;;;;;;;;;;7.60;35.17;99041.94;4482754;32;34704;-88
2022/01/08 11:31:55;;;;;;;;;;;;;;;8.61;33.16;99050.94;4482006;32;34355;-87
2022/01/08 11:34:24;;;;;;;;;;;;;;;6.21;37.71;99054.75;4481783;32;33095;-88
2022/01/08 11:36:51;;;;;;;;;;;;;;;6.83;36.54;99054.69;4483003;32;33804;-86
2022/01/08 11:39:20;;;;;;;;;;;;;;;5.99;38.53;99054.97;4482942;32;35412;-87
2022/01/08 11:41:49;;;;;;;;;;;;;;;6.36;37.81;99048.25;4468746;32;34364;-87
2022/01/08 11:44:16;;;;;;;;;;;;;;;6.90;36.44;99054.03;4482353;32;34097;-88
2022/01/08 11:46:44;;;;;;;;;;;;;;;7.34;35.31;99045.63;4481470;32;34967;-85
2022/01/08 11:49:11;;;;;;;;;;;;;;;7.68;34.79;99042.97;4482387;32;33855;-86
2022/01/08 11:51:38;;;;;;;;;;;;;;;7.67;34.33;99037.78;4469280;32;33847;-86
2022/01/08 11:54:06;;;;;;;;;;;;;;;8.08;32.40;99043.84;4474400;32;34076;-84
2022/01/08 11:56:40;;;;;;;;;;;;;;;8.00;33.22;99035.06;4477565;32;34186;-85
2022/01/08 11:59:11;;;;;;;;;;;;;;;7.44;33.69;99029.53;4479920;32;34843;-86
2022/01/08 12:01:40;;;;;;;;;;;;;;;7.23;34.62;99033.34;4482164;32;34039;-86
2022/01/08 12:04:07;;;;;;;;;;;;;;;7.26;34.07;99029.97;4467252;32;31726;-85
2022/01/08 12:06:37;;;;;;;;;;;;;;;7.53;33.77;99017.69;4464999;32;33287;-85
2022/01/08 12:09:08;;;;;;;;;;;;;;;7.19;34.21;99013.47;4466511;32;33427;-85
2022/01/08 12:11:35;;;;;;;;;;;;;;;7.45;34.36;99020.94;4474700;32;33656;-85
2022/01/08 12:14:09;;;;;;;;;;;;;;;7.89;33.68;99006.44;4468160;32;33066;-84
2022/01/08 12:16:38;;;;;;;;;;;;;;;7.86;33.08;99006.38;4481970;32;34935;-87
2022/01/08 12:19:06;;;;;;;;;;;;;;;7.96;33.69;99004.88;4482006;32;34266;-86
2022/01/08 12:21:35;;;;;;;;;;;;;;;7.32;35.87;99000.03;4482296;32;34997;-86
2022/01/08 12:24:21;;;;;;;;;;;;;;;7.60;35.17;98987.75;4481727;32;33063;-86
2022/01/08 12:26:49;;;;;;;;;;;;;;;7.68;34.19;98985.34;4481794;32;33970;-87
2022/01/08 12:29:36;;;;;;;;;;;;;;;7.64;34.81;98988.69;4482015;32;34180;-88
2022/01/08 12:32:27;;;;;;;;;;;;;;;8.97;30.98;98980.91;4481536;32;35130;-88
2022/01/08 12:35:20;;;;;;;;;;;;;;;8.55;32.32;98981.91;4483014;32;34254;-89
2022/01/08 12:37:47;;;;;;;;;;;;;;;7.97;33.49;98973.03;4483202;32;33977;-87
2022/01/08 12:40:34;;;;;;;;;;;;;;;8.72;32.28;98967.59;4484380;32;34317;-87
2022/01/08 12:43:18;;;;;;;;;;;;;;;7.90;32.51;98969.47;4482888;32;34181;-88
2022/01/08 12:45:48;;;;;;;;;;;;;;;8.88;31.48;98966.13;4483916;32;34095;-89
2022/01/08 12:48:16;;;;;;;;;;;;;;;8.95;31.36;98974.84;4483328;32;33360;-89
2022/01/08 12:50:43;;;;;;;;;;;;;;;9.61;30.95;98961.16;4483058;32;34904;-86
2022/01/08 12:53:17;;;;;;;;;;;;;;;8.46;31.28;98961.09;4483939;32;34855;-87
2022/01/08 12:55:53;;;;;;;;;;;;;;;8.84;30.62;98947.94;4470559;32;33781;-85
2022/01/08 12:58:25;;;;;;;;;;;;;;;9.62;30.18;98955.16;4470124;32;194468;-87
2022/01/08 13:00:53;;;;;;;;;;;;;;;10.04;29.46;98953.94;4483519;32;33864;-88
2022/01/08 13:03:26;;;;;;;;;;;;;;;9.42;29.75;98951.41;4479757;32;34287;-87
2022/01/08 13:05:53;;;;;;;;;;;;;;;8.92;30.36;98941.19;4483669;32;33491;-88
2022/01/08 13:08:24;;;;;;;;;;;;;;;8.87;30.43;98946.28;4483694;32;34248;-86
2022/01/08 13:10:57;;;;;;;;;;;;;;;9.08;30.30;98939.69;4483700;32;34075;-86
2022/01/08 13:13:24;;;;;;;;;;;;;;;9.47;29.96;98939.38;4481789;32;34044;-84
2022/01/08 13:15:52;;;;;;;;;;;;;;;9.11;30.75;98942.34;4482504;32;33872;-86
2022/01/08 13:18:24;;;;;;;;;;;;;;;9.43;29.54;98940.19;4482919;32;34159;-85
2022/01/08 13:21:01;;;;;;;;;;;;;;;8.99;30.58;98941.31;4483568;32;34286;-88
2022/01/08 13:23:28;;;;;;;;;;;;;;;8.38;31.38;98939.44;4480853;32;33925;-86
2022/01/08 13:25:56;;;;;;;;;;;;;;;8.26;32.11;98940.03;4480796;32;33848;-89
2022/01/08 13:28:24;;;;;;;;;;;;;;;9.06;30.66;98937.09;4483513;32;34016;-87